Time;durP1;ratioP1;P1;durP2;ratioP2;P2;SDS_P1;SDS_P2;PMS_P1;PMS_P2;Temp;Humidity;BMP_temperature;BMP_pressure;BME280_temperature;BME280_humidity;BME280_pressure;Samples;Min_cycle;Max_cycle;Signal;HPM_P1;HPM_P2
2021/03/21 00:01:32;;;;;;;;;;;6.00;98.50;;;;;;5036285;28;19951;-85
2021/03/21 00:03:57;;;;;;;;;;;6.00;98.50;;;;;;5054157;28;19905;-87
2021/03/21 00:06:23;;;;;;;;;;;6.00;98.40;;;;;;5036199;28;19905;-86
2021/03/21 00:08:49;;;;;;;;;;;6.00;98.30;;;;;;5035443;28;19905;-85
2021/03/21 00:11:14;;;;;;;;;;;6.00;98.20;;;;;;5034573;28;19916;-86
2021/03/21 00:13:40;;;;;;;;;;;6.00;98.40;;;;;;5052512;28;20281;-86
2021/03/21 00:16:07;;;;;;;;;;;6.00;98.30;;;;;;5052533;28;19909;-86
2021/03/21 00:18:34;;;;;;;;;;;6.00;98.40;;;;;;5034685;28;19911;-86
2021/03/21 00:21:00;;;;;;;;;;;6.10;98.30;;;;;;5034076;28;19909;-86
2021/03/21 00:23:26;;;;;;;;;;;6.00;98.50;;;;;;5035012;28;19905;-87
2021/03/21 00:25:52;;;;;;;;;;;6.10;98.50;;;;;;5034556;28;19905;-86
2021/03/21 00:28:20;;;;;;;;;;;6.00;98.50;;;;;;5034650;28;19916;-85
2021/03/21 00:30:47;;;;;;;;;;;6.10;98.50;;;;;;5033408;28;20365;-86
2021/03/21 00:33:14;;;;;;;;;;;6.10;98.40;;;;;;5034230;28;19919;-86
2021/03/21 00:35:39;;;;;;;;;;;6.10;98.40;;;;;;5034627;28;19905;-86
2021/03/21 00:38:07;;;;;;;;;;;6.00;98.30;;;;;;5053691;28;19912;-86
2021/03/21 00:40:33;;;;;;;;;;;6.00;98.30;;;;;;5053505;28;19905;-86
2021/03/21 00:42:59;;;;;;;;;;;6.10;98.30;;;;;;5036223;28;20007;-85
2021/03/21 00:45:25;;;;;;;;;;;6.10;98.40;;;;;;5036064;28;20431;-86
2021/03/21 00:47:51;;;;;;;;;;;6.00;98.20;;;;;;5036475;28;19904;-86
2021/03/21 00:50:19;;;;;;;;;;;6.00;98.40;;;;;;5035334;28;20051;-86
2021/03/21 00:52:44;;;;;;;;;;;6.00;98.50;;;;;;5036054;28;19909;-86
2021/03/21 00:55:12;;;;;;;;;;;6.00;98.50;;;;;;5035958;28;20431;-86
2021/03/21 00:57:37;;;;;;;;;;;5.90;98.50;;;;;;5035808;28;20376;-86
2021/03/21 01:00:05;;;;;;;;;;;6.00;98.40;;;;;;5034943;28;19905;-86
2021/03/21 01:02:30;;;;;;;;;;;5.90;98.60;;;;;;5035985;28;19918;-85
2021/03/21 01:04:56;;;;;;;;;;;5.80;98.90;;;;;;5054451;28;19995;-85
2021/03/21 01:07:21;;;;;;;;;;;6.00;98.90;;;;;;5054398;28;19991;-86
2021/03/21 01:09:47;;;;;;;;;;;6.00;98.90;;;;;;5035649;28;19905;-86
2021/03/21 01:12:12;;;;;;;;;;;6.00;98.60;;;;;;5039517;28;19912;-86
2021/03/21 01:14:38;;;;;;;;;;;6.00;98.70;;;;;;5057686;28;19905;-85
2021/03/21 01:17:03;;;;;;;;;;;6.00;98.70;;;;;;5038667;28;19944;-87
2021/03/21 01:19:29;;;;;;;;;;;6.00;98.60;;;;;;5039394;28;19904;-87
2021/03/21 01:21:55;;;;;;;;;;;6.10;98.60;;;;;;5039614;28;20335;-86
2021/03/21 01:24:22;;;;;;;;;;;6.00;98.40;;;;;;5057623;28;20324;-85
2021/03/21 01:26:48;;;;;;;;;;;6.10;98.40;;;;;;5039238;28;19912;-86
2021/03/21 01:29:14;;;;;;;;;;;6.10;98.40;;;;;;5038376;28;19913;-86
2021/03/21 01:31:40;;;;;;;;;;;6.10;98.50;;;;;;5038782;28;19908;-87
2021/03/21 01:34:05;;;;;;;;;;;6.20;98.50;;;;;;5057199;28;19905;-86
2021/03/21 01:36:33;;;;;;;;;;;6.20;98.40;;;;;;5039172;28;19913;-86
2021/03/21 01:38:59;;;;;;;;;;;6.20;98.30;;;;;;5038243;28;19904;-86
2021/03/21 01:41:33;;;;;;;;;;;6.20;98.40;;;;;;5038677;28;19905;-86
2021/03/21 01:43:58;;;;;;;;;;;6.20;98.20;;;;;;5056677;28;19912;-86
2021/03/21 01:46:28;;;;;;;;;;;6.10;98.30;;;;;;5038913;28;19905;-87
2021/03/21 01:48:55;;;;;;;;;;;6.20;98.20;;;;;;5037745;28;19940;-87
2021/03/21 01:51:35;;;;;;;;;;;6.20;98.30;;;;;;5038593;28;19923;-86
2021/03/21 01:54:02;;;;;;;;;;;6.10;98.40;;;;;;5038147;28;20357;-86
2021/03/21 01:56:28;;;;;;;;;;;6.20;98.30;;;;;;5038102;28;19904;-87
2021/03/21 01:59:00;;;;;;;;;;;6.10;98.20;;;;;;5037943;28;19920;-86
2021/03/21 02:01:27;;;;;;;;;;;6.10;98.30;;;;;;5038581;28;19905;-86
2021/03/21 02:03:53;;;;;;;;;;;6.00;98.40;;;;;;5056677;28;19905;-86
2021/03/21 02:06:40;;;;;;;;;;;6.00;98.30;;;;;;5056988;28;19911;-86
2021/03/21 02:09:17;;;;;;;;;;;6.00;98.30;;;;;;5055047;28;19908;-86
2021/03/21 02:11:43;;;;;;;;;;;6.00;98.60;;;;;;5038020;28;19916;-86
2021/03/21 02:14:15;;;;;;;;;;;6.00;98.50;;;;;;5038882;28;19905;-86
2021/03/21 02:16:54;;;;;;;;;;;6.00;98.40;;;;;;5055090;28;19909;-86
2021/03/21 02:19:25;;;;;;;;;;;6.00;98.50;;;;;;5038718;28;20296;-86
2021/03/21 02:21:57;;;;;;;;;;;6.00;98.80;;;;;;5038698;28;19912;-86
2021/03/21 02:24:43;;;;;;;;;;;6.00;98.80;;;;;;5038384;28;20378;-86
2021/03/21 02:27:13;;;;;;;;;;;6.00;98.70;;;;;;5037916;28;19905;-86
2021/03/21 02:29:51;;;;;;;;;;;6.00;98.70;;;;;;5054357;28;20369;-86
2021/03/21 02:32:25;;;;;;;;;;;6.00;98.80;;;;;;5038095;28;19919;-86
2021/03/21 02:34:59;;;;;;;;;;;6.00;98.70;;;;;;5038271;28;19912;-86
2021/03/21 02:37:29;;;;;;;;;;;6.00;98.80;;;;;;5038107;28;19904;-85
2021/03/21 02:39:58;;;;;;;;;;;5.90;99.10;;;;;;5037676;28;20396;-86
2021/03/21 02:42:29;;;;;;;;;;;6.00;99.10;;;;;;5037794;28;20002;-86
2021/03/21 02:45:00;;;;;;;;;;;6.00;98.90;;;;;;5038306;28;19936;-86
2021/03/21 02:47:28;;;;;;;;;;;5.90;99.10;;;;;;5037903;28;19940;-87
2021/03/21 02:49:55;;;;;;;;;;;5.90;99.00;;;;;;5038267;28;20379;-86
2021/03/21 02:52:25;;;;;;;;;;;5.90;99.10;;;;;;5038841;28;19919;-86
2021/03/21 02:55:01;;;;;;;;;;;5.90;99.10;;;;;;5038888;28;20490;-86
2021/03/21 02:57:30;;;;;;;;;;;5.90;99.00;;;;;;5039011;28;20319;-86
2021/03/21 02:59:56;;;;;;;;;;;5.90;99.10;;;;;;5056998;28;20412;-86
2021/03/21 03:02:35;;;;;;;;;;;5.90;99.00;;;;;;5038499;28;20035;-86
2021/03/21 03:05:06;;;;;;;;;;;5.90;99.10;;;;;;5038447;28;20398;-86
2021/03/21 03:07:35;;;;;;;;;;;5.90;99.10;;;;;;5056362;28;19911;-86
2021/03/21 03:10:05;;;;;;;;;;;5.90;99.00;;;;;;5056005;28;19912;-86
2021/03/21 03:12:33;;;;;;;;;;;5.90;99.10;;;;;;5038989;28;19905;-87
2021/03/21 03:15:01;;;;;;;;;;;5.90;99.00;;;;;;5038706;28;19905;-86
2021/03/21 03:17:26;;;;;;;;;;;5.80;99.10;;;;;;5038523;28;19909;-86
2021/03/21 03:19:59;;;;;;;;;;;5.80;99.10;;;;;;5054434;28;19958;-86
2021/03/21 03:22:24;;;;;;;;;;;5.80;98.90;;;;;;5038268;28;19919;-86
2021/03/21 03:25:08;;;;;;;;;;;5.80;99.00;;;;;;5057164;28;19904;-86
2021/03/21 03:27:40;;;;;;;;;;;5.80;99.10;;;;;;5056530;28;19905;-86
2021/03/21 03:30:11;;;;;;;;;;;5.90;99.00;;;;;;5054478;28;20003;-86
2021/03/21 03:32:37;;;;;;;;;;;5.80;98.90;;;;;;5037700;28;19908;-85
2021/03/21 03:35:04;;;;;;;;;;;5.80;98.90;;;;;;5039184;28;19911;-86
2021/03/21 03:37:29;;;;;;;;;;;5.80;98.80;;;;;;5038859;28;19904;-86
2021/03/21 03:39:55;;;;;;;;;;;5.80;99.10;;;;;;5038436;28;19909;-86
2021/03/21 03:42:20;;;;;;;;;;;5.80;98.90;;;;;;5038645;28;19952;-86
2021/03/21 03:45:02;;;;;;;;;;;5.90;98.90;;;;;;5057125;28;19909;-87
2021/03/21 03:47:32;;;;;;;;;;;5.90;98.80;;;;;;5056483;28;19912;-86
2021/03/21 03:50:12;;;;;;;;;;;5.90;98.70;;;;;;5037568;28;19909;-86
2021/03/21 03:52:47;;;;;;;;;;;5.90;98.80;;;;;;5037979;28;19904;-86
2021/03/21 03:55:12;;;;;;;;;;;5.80;98.80;;;;;;5038833;28;19904;-86
2021/03/21 03:57:45;;;;;;;;;;;5.80;98.80;;;;;;5055108;28;20288;-86
2021/03/21 04:00:20;;;;;;;;;;;5.90;98.80;;;;;;5038037;28;19905;-86
2021/03/21 04:02:55;;;;;;;;;;;5.90;98.60;;;;;;5037092;28;19904;-86
2021/03/21 04:05:20;;;;;;;;;;;5.90;98.60;;;;;;5056373;28;19909;-86
2021/03/21 04:07:50;;;;;;;;;;;5.90;98.70;;;;;;5054856;28;19962;-86
2021/03/21 04:10:18;;;;;;;;;;;5.90;98.50;;;;;;5037895;28;20273;-86
2021/03/21 04:12:52;;;;;;;;;;;5.80;98.40;;;;;;5039014;28;19905;-86
2021/03/21 04:15:21;;;;;;;;;;;5.80;98.40;;;;;;5039720;28;19909;-86
2021/03/21 04:17:52;;;;;;;;;;;5.80;98.50;;;;;;5057935;28;20531;-86
2021/03/21 04:20:25;;;;;;;;;;;5.80;98.60;;;;;;5037810;28;20416;-85
2021/03/21 04:23:05;;;;;;;;;;;5.80;98.60;;;;;;5053612;28;19905;-86
2021/03/21 04:25:34;;;;;;;;;;;5.80;98.80;;;;;;5035414;28;19928;-85
2021/03/21 04:28:02;;;;;;;;;;;5.80;99.20;;;;;;5035201;28;19995;-85
2021/03/21 04:30:34;;;;;;;;;;;5.80;99.30;;;;;;5035250;28;20311;-85
2021/03/21 04:33:01;;;;;;;;;;;5.80;99.30;;;;;;5052995;28;19912;-85
2021/03/21 04:35:45;;;;;;;;;;;5.80;99.30;;;;;;5035342;28;19909;-85
2021/03/21 04:38:15;;;;;;;;;;;5.80;99.40;;;;;;5052026;28;19958;-85
2021/03/21 04:40:41;;;;;;;;;;;5.80;99.50;;;;;;5035228;28;20361;-85
2021/03/21 04:43:10;;;;;;;;;;;5.80;99.60;;;;;;5034808;28;19917;-85
2021/03/21 04:45:41;;;;;;;;;;;5.80;99.70;;;;;;5036645;28;19905;-85
2021/03/21 04:48:10;;;;;;;;;;;5.80;99.90;;;;;;5039253;28;19912;-86
2021/03/21 04:50:36;;;;;;;;;;;5.80;99.90;;;;;;5057069;28;19940;-85
2021/03/21 04:53:01;;;;;;;;;;;5.80;99.90;;;;;;5056830;28;20372;-85
2021/03/21 04:55:30;;;;;;;;;;;5.70;99.90;;;;;;5055795;28;19919;-85
2021/03/21 04:57:57;;;;;;;;;;;5.70;99.90;;;;;;5039085;28;19913;-86
2021/03/21 05:00:37;;;;;;;;;;;5.70;99.90;;;;;;5038841;28;19912;-85
2021/03/21 05:03:22;;;;;;;;;;;5.80;99.90;;;;;;5038925;28;19953;-86
2021/03/21 05:05:56;;;;;;;;;;;5.70;99.90;;;;;;5038654;28;20061;-85
2021/03/21 05:08:26;;;;;;;;;;;5.80;99.90;;;;;;5038482;28;20004;-85
2021/03/21 05:10:52;;;;;;;;;;;5.80;99.90;;;;;;5038246;28;19908;-85
2021/03/21 05:13:27;;;;;;;;;;;5.80;99.90;;;;;;5038226;28;19999;-85
2021/03/21 05:15:58;;;;;;;;;;;5.80;99.90;;;;;;5054856;28;19905;-85
2021/03/21 05:18:39;;;;;;;;;;;5.80;99.90;;;;;;5054766;28;20381;-86
2021/03/21 05:21:23;;;;;;;;;;;5.80;99.90;;;;;;5037978;28;19904;-86
2021/03/21 05:24:12;;;;;;;;;;;5.80;99.90;;;;;;5054721;28;19905;-86
2021/03/21 05:27:04;;;;;;;;;;;5.80;99.90;;;;;;5038280;28;19905;-86
2021/03/21 05:29:45;;;;;;;;;;;5.80;99.90;;;;;;5022370;28;19912;-86
2021/03/21 05:32:12;;;;;;;;;;;5.80;99.90;;;;;;5038211;28;20297;-86
2021/03/21 05:34:38;;;;;;;;;;;5.80;99.90;;;;;;5056481;28;19927;-86
2021/03/21 05:37:13;;;;;;;;;;;5.80;99.90;;;;;;5037462;28;20258;-86
2021/03/21 05:39:58;;;;;;;;;;;5.80;99.90;;;;;;5053286;28;20281;-86
2021/03/21 05:42:30;;;;;;;;;;;5.80;99.90;;;;;;5026580;28;19915;-86
2021/03/21 05:45:04;;;;;;;;;;;5.80;99.90;;;;;;5053860;28;20008;-85
2021/03/21 05:47:36;;;;;;;;;;;5.80;99.90;;;;;;5037150;28;19905;-87
2021/03/21 05:50:30;;;;;;;;;;;5.80;99.90;;;;;;5036386;28;19905;-87
2021/03/21 05:53:08;;;;;;;;;;;5.90;99.90;;;;;;5054509;28;19909;-86
2021/03/21 05:55:34;;;;;;;;;;;5.80;99.90;;;;;;5036416;28;19905;-86
2021/03/21 05:57:59;;;;;;;;;;;5.80;99.90;;;;;;5053606;28;19904;-87
2021/03/21 06:00:25;;;;;;;;;;;5.80;99.90;;;;;;5053160;28;19948;-86
2021/03/21 06:02:56;;;;;;;;;;;5.90;99.90;;;;;;5036854;28;19904;-86
2021/03/21 06:05:40;;;;;;;;;;;5.90;99.90;;;;;;5036842;28;19996;-86
2021/03/21 06:08:12;;;;;;;;;;;5.90;99.90;;;;;;5053328;28;19988;-86
2021/03/21 06:10:44;;;;;;;;;;;5.90;99.90;;;;;;5052681;28;19909;-86
2021/03/21 06:13:24;;;;;;;;;;;5.90;99.90;;;;;;5054449;28;19905;-87
2021/03/21 06:16:02;;;;;;;;;;;5.90;99.90;;;;;;5036604;28;19912;-87
2021/03/21 06:18:33;;;;;;;;;;;6.00;99.90;;;;;;5054419;28;19905;-86
2021/03/21 06:21:05;;;;;;;;;;;6.00;99.90;;;;;;5052524;28;20389;-87
2021/03/21 06:23:50;;;;;;;;;;;6.00;99.90;;;;;;5036631;28;20381;-87
2021/03/21 06:26:34;;;;;;;;;;;6.00;99.90;;;;;;5054172;28;20361;-86
2021/03/21 06:29:26;;;;;;;;;;;6.00;99.90;;;;;;5052127;28;20349;-87
2021/03/21 06:38:35;;;;;;;;;;;6.10;99.90;;;;;;5054127;28;20325;-87
2021/03/21 07:02:53;;;;;;;;;;;6.20;99.20;;;;;;5053712;28;20315;-87
2021/03/21 07:05:48;;;;;;;;;;;6.20;98.90;;;;;;5052435;28;20365;-86
2021/03/21 07:08:32;;;;;;;;;;;6.20;98.80;;;;;;5051541;28;19905;-86
2021/03/21 07:11:21;;;;;;;;;;;6.20;98.80;;;;;;5052743;28;20384;-87
2021/03/21 07:13:58;;;;;;;;;;;6.30;98.70;;;;;;5032883;28;19909;-86
2021/03/21 07:16:36;;;;;;;;;;;6.30;98.40;;;;;;5035545;28;19999;-86
2021/03/21 07:19:20;;;;;;;;;;;6.30;98.60;;;;;;5051902;28;20289;-86
2021/03/21 07:22:04;;;;;;;;;;;6.40;98.30;;;;;;5075603;22;20011;-83
2021/03/21 07:24:53;;;;;;;;;;;6.30;98.20;;;;;;5037794;28;19905;-83
2021/03/21 07:27:25;;;;;;;;;;;6.30;98.20;;;;;;5036702;28;19905;-83
2021/03/21 07:29:54;;;;;;;;;;;6.30;98.20;;;;;;5036737;28;19905;-83
2021/03/21 07:32:19;;;;;;;;;;;6.20;98.60;;;;;;5055536;28;19912;-83
2021/03/21 07:34:48;;;;;;;;;;;6.30;98.90;;;;;;5055578;28;20311;-83
2021/03/21 07:37:27;;;;;;;;;;;6.30;99.00;;;;;;5055384;28;19942;-84
2021/03/21 07:39:52;;;;;;;;;;;6.20;99.00;;;;;;5055013;28;19947;-83
2021/03/21 07:42:22;;;;;;;;;;;6.30;99.30;;;;;;5055223;28;19952;-84
2021/03/21 07:45:00;;;;;;;;;;;6.20;99.40;;;;;;5055328;28;20532;-84
2021/03/21 07:47:33;;;;;;;;;;;6.20;99.60;;;;;;5055273;28;19946;-84
2021/03/21 07:50:17;;;;;;;;;;;6.30;99.60;;;;;;5055235;28;20507;-85
2021/03/21 07:52:46;;;;;;;;;;;6.20;99.40;;;;;;5058744;28;20003;-82
2021/03/21 07:55:32;;;;;;;;;;;6.20;99.30;;;;;;5056004;28;19904;-83
2021/03/21 07:58:00;;;;;;;;;;;6.20;99.50;;;;;;5056132;28;19904;-83
2021/03/21 08:00:26;;;;;;;;;;;6.20;99.60;;;;;;5055963;28;19911;-83
2021/03/21 08:03:10;;;;;;;;;;;6.20;99.50;;;;;;5057544;28;19905;-83
2021/03/21 08:05:36;;;;;;;;;;;6.20;99.70;;;;;;5056086;28;19923;-83
2021/03/21 08:08:01;;;;;;;;;;;6.20;99.50;;;;;;5056537;28;20369;-83
2021/03/21 08:10:32;;;;;;;;;;;6.20;99.40;;;;;;5055361;28;19916;-82
2021/03/21 08:13:18;;;;;;;;;;;6.30;99.10;;;;;;5055119;28;19942;-84
2021/03/21 08:15:44;;;;;;;;;;;6.30;99.10;;;;;;5054862;28;20258;-83
2021/03/21 08:18:14;;;;;;;;;;;6.30;98.90;;;;;;5054782;28;19911;-83
2021/03/21 08:20:45;;;;;;;;;;;6.40;98.70;;;;;;5057428;28;19927;-83
2021/03/21 08:23:19;;;;;;;;;;;6.40;98.60;;;;;;5058887;28;19911;-83
2021/03/21 08:25:45;;;;;;;;;;;6.40;98.10;;;;;;5076759;28;19940;-84
2021/03/21 08:28:11;;;;;;;;;;;6.40;97.90;;;;;;5076932;28;19948;-83
2021/03/21 08:30:49;;;;;;;;;;;6.40;98.40;;;;;;5075682;28;19962;-84
2021/03/21 08:33:24;;;;;;;;;;;6.40;98.60;;;;;;5058618;28;19912;-83
2021/03/21 08:36:06;;;;;;;;;;;6.30;98.50;;;;;;5076743;28;19904;-82
2021/03/21 08:38:31;;;;;;;;;;;6.20;98.40;;;;;;5059326;28;19911;-83
2021/03/21 08:41:01;;;;;;;;;;;6.20;98.10;;;;;;5058147;28;19904;-83
2021/03/21 08:43:28;;;;;;;;;;;6.20;97.10;;;;;;5059802;28;20289;-83
2021/03/21 08:46:13;;;;;;;;;;;6.30;96.50;;;;;;5060094;28;20376;-83
2021/03/21 08:48:39;;;;;;;;;;;6.30;96.20;;;;;;5059075;28;20371;-83
2021/03/21 08:51:05;;;;;;;;;;;6.40;96.20;;;;;;5076046;28;19944;-83
2021/03/21 08:53:55;;;;;;;;;;;6.40;95.40;;;;;;5076206;28;20289;-83
2021/03/21 08:56:23;;;;;;;;;;;6.50;94.90;;;;;;5058339;28;20238;-83
2021/03/21 08:58:50;;;;;;;;;;;6.50;94.80;;;;;;5058021;28;19908;-83
2021/03/21 09:01:24;;;;;;;;;;;6.60;94.50;;;;;;5075724;28;19912;-84
2021/03/21 09:03:50;;;;;;;;;;;6.60;92.70;;;;;;5076565;28;20407;-84
2021/03/21 09:06:27;;;;;;;;;;;6.60;91.50;;;;;;5076110;28;19904;-84
2021/03/21 09:08:53;;;;;;;;;;;6.60;92.00;;;;;;5057800;28;20418;-83
2021/03/21 09:11:31;;;;;;;;;;;6.60;91.80;;;;;;5057713;28;19909;-83
2021/03/21 09:14:01;;;;;;;;;;;6.60;91.80;;;;;;5058303;28;19934;-83
2021/03/21 09:16:27;;;;;;;;;;;6.60;91.80;;;;;;5057707;28;19905;-83
2021/03/21 09:19:09;;;;;;;;;;;6.70;92.20;;;;;;5057794;28;19919;-84
2021/03/21 09:21:44;;;;;;;;;;;6.70;91.50;;;;;;5058631;28;19912;-84
2021/03/21 09:24:16;;;;;;;;;;;6.60;90.70;;;;;;5058447;28;20283;-83
2021/03/21 09:26:45;;;;;;;;;;;6.60;90.90;;;;;;5076310;28;19905;-83
2021/03/21 09:29:10;;;;;;;;;;;6.70;91.40;;;;;;5075451;28;19904;-83
2021/03/21 09:31:36;;;;;;;;;;;6.60;90.90;;;;;;5075039;28;19915;-83
2021/03/21 09:34:05;;;;;;;;;;;6.60;90.70;;;;;;5057985;28;19914;-84
2021/03/21 09:36:34;;;;;;;;;;;6.70;91.20;;;;;;5058133;28;19905;-84
2021/03/21 09:39:03;;;;;;;;;;;6.70;91.10;;;;;;5057257;28;20347;-83
2021/03/21 09:41:28;;;;;;;;;;;6.70;91.30;;;;;;5075825;28;19904;-84
2021/03/21 09:44:02;;;;;;;;;;;6.80;91.20;;;;;;5057825;28;19941;-83
2021/03/21 09:46:27;;;;;;;;;;;6.70;91.30;;;;;;5057818;28;20014;-83
2021/03/21 09:48:56;;;;;;;;;;;6.80;91.50;;;;;;5075002;28;19947;-82
2021/03/21 09:51:31;;;;;;;;;;;6.80;91.30;;;;;;5057256;28;19922;-82
2021/03/21 09:54:08;;;;;;;;;;;6.80;90.50;;;;;;5057297;28;19904;-83
2021/03/21 09:56:46;;;;;;;;;;;6.90;91.40;;;;;;5057578;28;19913;-83
2021/03/21 09:59:27;;;;;;;;;;;6.90;91.10;;;;;;5074353;28;19931;-82
2021/03/21 10:02:10;;;;;;;;;;;6.90;90.90;;;;;;5057192;28;19908;-83
2021/03/21 10:05:11;;;;;;;;;;;6.90;90.30;;;;;;5057378;28;19905;-84
2021/03/21 10:07:54;;;;;;;;;;;6.90;88.50;;;;;;5000790;28;19905;-84
2021/03/21 10:10:22;;;;;;;;;;;6.90;88.80;;;;;;5067182;28;19904;-84
2021/03/21 10:12:48;;;;;;;;;;;6.90;88.60;;;;;;5077852;28;20549;-83
2021/03/21 10:15:18;;;;;;;;;;;7.00;89.10;;;;;;5082213;28;19904;-84
2021/03/21 10:17:46;;;;;;;;;;;7.00;87.80;;;;;;5079691;28;19966;-83
2021/03/21 10:20:13;;;;;;;;;;;7.00;87.80;;;;;;5081119;28;20387;-83
2021/03/21 10:22:39;;;;;;;;;;;7.10;87.20;;;;;;5081431;28;19904;-83
2021/03/21 10:25:12;;;;;;;;;;;7.10;86.50;;;;;;5063618;28;19950;-83
2021/03/21 10:27:45;;;;;;;;;;;7.10;86.00;;;;;;5062712;28;20292;-84
2021/03/21 10:30:14;;;;;;;;;;;7.10;86.20;;;;;;5062258;28;19942;-82
2021/03/21 10:32:42;;;;;;;;;;;7.00;86.60;;;;;;5062042;28;20430;-83
2021/03/21 10:35:13;;;;;;;;;;;7.10;87.30;;;;;;5062631;28;19997;-83
2021/03/21 10:37:41;;;;;;;;;;;7.10;87.80;;;;;;5078901;28;19904;-84
2021/03/21 10:40:25;;;;;;;;;;;7.10;88.20;;;;;;5056051;28;19931;-83
2021/03/21 10:42:53;;;;;;;;;;;7.00;87.50;;;;;;5074058;28;20443;-84
2021/03/21 10:45:31;;;;;;;;;;;7.00;88.50;;;;;;5073876;28;20018;-83
2021/03/21 10:47:57;;;;;;;;;;;7.10;89.30;;;;;;5056155;28;19927;-84
2021/03/21 10:50:22;;;;;;;;;;;7.00;89.30;;;;;;5073476;28;19908;-83
2021/03/21 10:53:08;;;;;;;;;;;7.00;89.10;;;;;;5056606;28;20367;-83
2021/03/21 10:55:40;;;;;;;;;;;6.90;88.10;;;;;;5057524;28;19908;-85
2021/03/21 10:58:29;;;;;;;;;;;6.80;88.20;;;;;;5057094;28;19904;-84
2021/03/21 11:01:14;;;;;;;;;;;6.80;88.50;;;;;;5063102;28;19908;-83
2021/03/21 11:03:39;;;;;;;;;;;6.90;88.30;;;;;;5056187;28;19904;-84
2021/03/21 11:06:12;;;;;;;;;;;6.90;88.90;;;;;;5073894;28;19911;-84
2021/03/21 11:08:38;;;;;;;;;;;6.90;88.30;;;;;;5056321;28;19947;-84
2021/03/21 11:11:20;;;;;;;;;;;6.80;88.50;;;;;;5074171;28;19958;-83
2021/03/21 11:13:46;;;;;;;;;;;6.80;88.20;;;;;;5075104;28;19904;-84
2021/03/21 11:16:13;;;;;;;;;;;6.80;88.90;;;;;;5056308;28;19908;-83
2021/03/21 11:18:39;;;;;;;;;;;6.90;89.80;;;;;;5056561;28;19912;-84
2021/03/21 11:21:20;;;;;;;;;;;6.90;89.20;;;;;;5074372;28;20257;-83
2021/03/21 11:23:45;;;;;;;;;;;6.90;87.60;;;;;;5074726;28;19927;-84
2021/03/21 11:26:26;;;;;;;;;;;7.00;87.00;;;;;;5074223;28;19904;-84
2021/03/21 11:29:01;;;;;;;;;;;7.00;87.50;;;;;;5073637;28;19905;-83
2021/03/21 11:31:48;;;;;;;;;;;7.10;86.90;;;;;;5074080;28;19952;-84
2021/03/21 11:34:22;;;;;;;;;;;7.10;86.30;;;;;;5058643;28;19959;-83
2021/03/21 11:36:57;;;;;;;;;;;7.20;85.90;;;;;;5058177;28;19904;-83
2021/03/21 11:39:30;;;;;;;;;;;7.30;85.70;;;;;;5057548;28;19914;-84
2021/03/21 11:41:55;;;;;;;;;;;7.30;83.90;;;;;;5058113;28;20323;-83
2021/03/21 11:44:25;;;;;;;;;;;7.30;84.10;;;;;;5076246;28;19905;-84
2021/03/21 11:46:52;;;;;;;;;;;7.40;83.40;;;;;;5075570;28;19904;-84
2021/03/21 11:49:18;;;;;;;;;;;7.40;83.50;;;;;;5075240;28;20273;-84
2021/03/21 11:51:45;;;;;;;;;;;7.40;81.80;;;;;;5075758;28;19939;-83
2021/03/21 11:54:18;;;;;;;;;;;7.50;82.10;;;;;;5074346;28;19922;-83
2021/03/21 11:56:43;;;;;;;;;;;7.50;81.30;;;;;;5058462;28;19908;-84
2021/03/21 11:59:13;;;;;;;;;;;7.50;81.10;;;;;;5057620;28;19939;-83
2021/03/21 12:01:41;;;;;;;;;;;7.50;81.30;;;;;;5076322;28;19963;-84
2021/03/21 12:04:09;;;;;;;;;;;7.50;82.00;;;;;;5075789;28;20304;-84
2021/03/21 12:06:46;;;;;;;;;;;7.50;81.70;;;;;;5057292;28;19905;-85
2021/03/21 12:09:19;;;;;;;;;;;7.60;81.30;;;;;;5057321;28;19954;-83
2021/03/21 12:11:47;;;;;;;;;;;7.60;81.30;;;;;;5058112;28;20351;-84
2021/03/21 12:14:31;;;;;;;;;;;7.50;81.10;;;;;;5058035;28;19931;-85
2021/03/21 12:16:57;;;;;;;;;;;7.50;81.00;;;;;;5057790;28;19904;-84
2021/03/21 12:19:30;;;;;;;;;;;7.60;80.80;;;;;;5072427;28;19915;-84
2021/03/21 12:22:16;;;;;;;;;;;7.60;80.00;;;;;;5056773;28;19923;-84
2021/03/21 12:24:50;;;;;;;;;;;7.70;77.40;;;;;;5060553;28;19912;-84
2021/03/21 12:27:29;;;;;;;;;;;7.70;77.50;;;;;;5058043;28;19904;-84
2021/03/21 12:30:15;;;;;;;;;;;7.70;78.50;;;;;;5074998;28;19904;-84
2021/03/21 12:32:42;;;;;;;;;;;7.70;79.50;;;;;;5056891;28;20003;-85
2021/03/21 12:35:27;;;;;;;;;;;7.80;79.80;;;;;;5057341;28;20318;-82
2021/03/21 12:38:01;;;;;;;;;;;7.70;79.20;;;;;;5056190;28;19904;-85
2021/03/21 12:40:33;;;;;;;;;;;7.70;78.90;;;;;;5057447;28;20360;-86
2021/03/21 12:43:16;;;;;;;;;;;7.70;78.10;;;;;;5057550;28;19905;-84
2021/03/21 12:46:14;;;;;;;;;;;7.80;78.40;;;;;;5055746;28;20426;-85
2021/03/21 12:48:55;;;;;;;;;;;7.80;79.10;;;;;;5019821;28;19904;-83
2021/03/21 12:51:34;;;;;;;;;;;7.80;77.60;;;;;;5079634;28;19923;-83
2021/03/21 12:54:00;;;;;;;;;;;7.90;78.00;;;;;;5062491;28;20487;-82
2021/03/21 12:56:26;;;;;;;;;;;7.80;77.20;;;;;;5080027;28;19947;-82
2021/03/21 12:58:51;;;;;;;;;;;7.80;77.80;;;;;;5061537;28;20031;-82
2021/03/21 13:01:17;;;;;;;;;;;7.80;78.40;;;;;;5078403;28;19904;-83
2021/03/21 13:03:43;;;;;;;;;;;7.80;78.30;;;;;;5060861;28;20406;-82
2021/03/21 13:06:08;;;;;;;;;;;7.80;77.80;;;;;;5061426;28;19904;-83
2021/03/21 13:08:34;;;;;;;;;;;7.90;77.00;;;;;;5078947;28;19908;-83
2021/03/21 13:11:01;;;;;;;;;;;7.90;76.70;;;;;;5068005;28;20266;-83
2021/03/21 13:13:27;;;;;;;;;;;8.00;76.90;;;;;;5079052;28;19904;-83
2021/03/21 13:15:53;;;;;;;;;;;8.00;76.10;;;;;;5059299;28;20491;-83
2021/03/21 13:18:19;;;;;;;;;;;8.00;76.20;;;;;;5075578;28;19905;-83
2021/03/21 13:20:46;;;;;;;;;;;7.90;77.20;;;;;;5059211;28;20295;-83
2021/03/21 13:23:12;;;;;;;;;;;7.90;78.60;;;;;;5062078;28;19908;-83
2021/03/21 13:25:37;;;;;;;;;;;7.90;78.40;;;;;;5061775;28;20280;-83
2021/03/21 13:28:04;;;;;;;;;;;7.90;78.40;;;;;;5079073;28;19908;-84
2021/03/21 13:30:31;;;;;;;;;;;7.90;77.90;;;;;;5076728;28;19919;-83
2021/03/21 13:32:56;;;;;;;;;;;7.90;76.60;;;;;;5058979;28;19943;-82
2021/03/21 13:35:24;;;;;;;;;;;7.90;76.70;;;;;;5061083;28;19909;-83
2021/03/21 13:37:50;;;;;;;;;;;8.00;75.50;;;;;;5061863;28;19904;-82
2021/03/21 13:40:20;;;;;;;;;;;8.10;75.60;;;;;;5059371;28;19904;-83
2021/03/21 13:42:46;;;;;;;;;;;8.00;75.40;;;;;;5057851;28;19905;-84
2021/03/21 13:45:11;;;;;;;;;;;8.00;76.10;;;;;;5058078;28;20266;-84
2021/03/21 13:47:37;;;;;;;;;;;7.90;77.20;;;;;;5060875;28;20356;-83
2021/03/21 13:50:03;;;;;;;;;;;7.90;78.00;;;;;;5060764;28;19966;-82
2021/03/21 13:52:30;;;;;;;;;;;7.90;78.70;;;;;;5077706;28;20004;-83
2021/03/21 13:54:55;;;;;;;;;;;7.90;78.80;;;;;;5059269;28;20343;-84
2021/03/21 13:57:21;;;;;;;;;;;7.80;79.10;;;;;;5060137;28;19952;-83
2021/03/21 13:59:47;;;;;;;;;;;7.90;77.30;;;;;;5057332;28;19919;-83
2021/03/21 14:02:12;;;;;;;;;;;8.00;78.10;;;;;;5058044;28;19908;-83
2021/03/21 14:04:38;;;;;;;;;;;8.10;75.60;;;;;;5076341;28;20343;-83
2021/03/21 14:07:03;;;;;;;;;;;8.00;76.10;;;;;;5060444;28;19936;-83
2021/03/21 14:09:29;;;;;;;;;;;8.10;77.10;;;;;;5056273;28;19943;-84
2021/03/21 14:11:55;;;;;;;;;;;8.10;78.00;;;;;;5056919;28;20307;-83
2021/03/21 14:14:20;;;;;;;;;;;8.00;78.00;;;;;;5060782;28;19904;-83
2021/03/21 14:16:46;;;;;;;;;;;8.00;78.30;;;;;;5061909;28;19911;-83
2021/03/21 14:19:13;;;;;;;;;;;8.00;77.80;;;;;;5061670;28;19908;-82
2021/03/21 14:21:39;;;;;;;;;;;8.00;78.80;;;;;;5062551;28;19916;-82
2021/03/21 14:24:05;;;;;;;;;;;7.90;79.30;;;;;;5066294;28;19918;-82
2021/03/21 14:26:31;;;;;;;;;;;7.90;79.70;;;;;;5084963;28;19956;-82
2021/03/21 14:28:56;;;;;;;;;;;7.90;78.70;;;;;;5084379;28;19904;-84
2021/03/21 14:31:22;;;;;;;;;;;7.90;78.00;;;;;;5065558;28;19916;-83
2021/03/21 14:33:48;;;;;;;;;;;8.00;78.30;;;;;;5067018;28;19904;-83
2021/03/21 14:36:14;;;;;;;;;;;8.00;78.10;;;;;;5084987;28;19904;-83
2021/03/21 14:38:39;;;;;;;;;;;8.00;78.30;;;;;;5065740;28;19969;-84
2021/03/21 14:41:05;;;;;;;;;;;7.90;78.40;;;;;;5063166;28;20041;-83
2021/03/21 14:43:31;;;;;;;;;;;7.80;79.10;;;;;;5083397;28;19911;-83
2021/03/21 14:45:56;;;;;;;;;;;7.90;79.40;;;;;;5066753;28;19987;-83
2021/03/21 14:48:22;;;;;;;;;;;7.90;79.50;;;;;;5067087;28;20338;-82
2021/03/21 14:50:49;;;;;;;;;;;7.90;80.00;;;;;;5084558;28;20376;-82
2021/03/21 14:53:14;;;;;;;;;;;7.80;80.10;;;;;;5065109;28;19920;-82
2021/03/21 14:55:43;;;;;;;;;;;7.80;80.20;;;;;;5062917;28;19908;-82
2021/03/21 14:58:14;;;;;;;;;;;7.70;80.30;;;;;;5061504;28;19905;-83
2021/03/21 15:00:39;;;;;;;;;;;7.80;80.40;;;;;;5060668;28;19912;-82
2021/03/21 15:03:05;;;;;;;;;;;7.80;80.80;;;;;;5061772;28;19904;-81
2021/03/21 15:05:31;;;;;;;;;;;7.80;81.00;;;;;;5061374;28;20041;-82
2021/03/21 15:07:57;;;;;;;;;;;7.80;80.60;;;;;;5061260;28;19910;-83
2021/03/21 15:10:23;;;;;;;;;;;7.80;80.50;;;;;;5062793;28;20479;-82
2021/03/21 15:12:49;;;;;;;;;;;7.90;80.20;;;;;;5080597;28;19905;-82
2021/03/21 15:15:25;;;;;;;;;;;7.80;80.00;;;;;;5080551;28;19905;-82
2021/03/21 15:17:51;;;;;;;;;;;7.80;80.30;;;;;;5079621;28;19909;-83
2021/03/21 15:20:17;;;;;;;;;;;7.80;80.60;;;;;;5064366;28;20533;-83
2021/03/21 15:22:43;;;;;;;;;;;7.80;80.80;;;;;;5063091;28;19908;-82